createdAt,value
2022-07-25T00:01:56.920Z,20.00
2022-07-25T00:04:24.682Z,20.03
2022-07-25T00:06:51.603Z,20.02
2022-07-25T00:09:18.471Z,19.70
2022-07-25T00:11:45.387Z,19.78
2022-07-25T00:14:12.257Z,19.71
2022-07-25T00:16:40.295Z,19.56
2022-07-25T00:19:07.236Z,19.56
2022-07-25T00:21:34.107Z,19.13
2022-07-25T00:24:00.965Z,19.42
2022-07-25T00:26:27.809Z,19.30
2022-07-25T00:28:54.815Z,19.20
2022-07-25T00:31:21.823Z,18.99
2022-07-25T00:33:48.765Z,18.84
2022-07-25T00:36:15.704Z,18.74
2022-07-25T00:38:42.615Z,18.66
2022-07-25T00:41:09.648Z,18.52
2022-07-25T00:43:36.636Z,18.57
2022-07-25T00:46:03.873Z,18.39
2022-07-25T00:48:30.909Z,18.52
2022-07-25T00:50:59.834Z,18.55
2022-07-25T00:53:26.844Z,18.21
2022-07-25T00:55:53.962Z,18.50
2022-07-25T00:58:20.919Z,18.25
2022-07-25T01:00:48.282Z,18.65
2022-07-25T01:03:16.262Z,18.64
2022-07-25T01:05:43.329Z,18.61
2022-07-25T01:08:10.550Z,18.73
2022-07-25T01:10:38.085Z,18.60
2022-07-25T01:13:05.599Z,18.42
2022-07-25T01:15:32.667Z,18.46
2022-07-25T01:17:59.766Z,18.30
2022-07-25T01:20:28.523Z,18.21
2022-07-25T01:22:56.824Z,18.14
2022-07-25T01:25:24.773Z,18.16
2022-07-25T01:27:55.714Z,18.01
2022-07-25T01:30:24.811Z,18.12
2022-07-25T01:32:52.364Z,17.95
2022-07-25T01:35:19.787Z,17.97
2022-07-25T01:37:46.730Z,17.76
2022-07-25T01:40:14.335Z,17.92
2022-07-25T01:42:42.249Z,17.90
2022-07-25T01:45:10.125Z,17.97
2022-07-25T01:47:37.009Z,17.91
2022-07-25T01:50:05.398Z,17.99
2022-07-25T01:52:32.511Z,17.69
2022-07-25T01:54:59.606Z,17.69
2022-07-25T01:57:30.747Z,17.81
2022-07-25T01:59:58.466Z,17.79
2022-07-25T02:02:26.418Z,17.75
2022-07-25T02:04:53.951Z,17.79
2022-07-25T02:07:20.902Z,17.59
2022-07-25T02:09:47.873Z,17.54
2022-07-25T02:12:14.706Z,17.48
2022-07-25T02:14:41.551Z,17.52
2022-07-25T02:17:08.719Z,17.39
2022-07-25T02:19:36.735Z,17.46
2022-07-25T02:22:04.247Z,17.35
2022-07-25T02:24:31.315Z,17.43
2022-07-25T02:26:58.489Z,17.44
2022-07-25T02:29:25.480Z,17.40
2022-07-25T02:31:53.274Z,17.29
2022-07-25T02:34:20.230Z,17.39
2022-07-25T02:36:47.090Z,17.24
2022-07-25T02:39:14.208Z,17.29
2022-07-25T02:41:41.413Z,17.36
2022-07-25T02:44:08.716Z,17.13
2022-07-25T02:46:36.006Z,17.08
2022-07-25T02:49:03.367Z,17.23
2022-07-25T02:51:30.253Z,17.19
2022-07-25T02:53:58.749Z,17.10
2022-07-25T02:56:29.742Z,17.12
2022-07-25T02:58:57.779Z,16.93
2022-07-25T03:01:25.125Z,16.70
2022-07-25T03:03:52.257Z,16.75
2022-07-25T03:06:19.256Z,16.68
2022-07-25T03:08:46.116Z,16.55
2022-07-25T03:11:14.357Z,16.43
2022-07-25T03:13:41.415Z,16.52
2022-07-25T03:16:08.712Z,16.61
2022-07-25T03:18:35.622Z,16.54
2022-07-25T03:21:02.600Z,16.71
2022-07-25T03:23:31.178Z,16.54
2022-07-25T03:25:58.391Z,16.73
2022-07-25T03:28:25.655Z,16.57
2022-07-25T03:30:53.446Z,16.51
2022-07-25T03:33:20.375Z,16.37
2022-07-25T03:35:47.482Z,16.46
2022-07-25T03:38:14.475Z,16.43
2022-07-25T03:40:41.369Z,16.48
2022-07-25T03:43:08.224Z,16.50
2022-07-25T03:45:35.354Z,16.68
2022-07-25T03:48:02.429Z,16.83
2022-07-25T03:50:29.272Z,16.89
2022-07-25T03:52:56.427Z,16.84
2022-07-25T03:55:23.478Z,16.79
2022-07-25T03:57:50.853Z,16.68
2022-07-25T04:00:17.949Z,16.68
2022-07-25T04:02:45.093Z,16.94
2022-07-25T04:05:12.101Z,16.92
2022-07-25T04:07:39.411Z,17.05
2022-07-25T04:10:07.509Z,16.87
2022-07-25T04:12:35.680Z,17.17
2022-07-25T04:15:02.635Z,17.36
2022-07-25T04:17:29.534Z,17.54
2022-07-25T04:19:57.519Z,17.63
2022-07-25T04:22:24.475Z,17.80
2022-07-25T04:24:51.376Z,17.77
2022-07-25T04:27:18.284Z,17.89
2022-07-25T04:29:45.217Z,17.83
2022-07-25T04:32:12.204Z,18.03
2022-07-25T04:34:39.210Z,18.15
2022-07-25T04:37:06.266Z,18.29
2022-07-25T04:39:33.131Z,18.39
2022-07-25T04:41:59.993Z,18.46
2022-07-25T04:44:26.827Z,18.62
2022-07-25T04:46:53.760Z,18.63
2022-07-25T04:49:21.250Z,18.90
2022-07-25T04:51:48.071Z,18.99
2022-07-25T04:54:18.377Z,19.12
2022-07-25T04:56:45.266Z,19.14
2022-07-25T04:59:12.177Z,19.44
2022-07-25T05:01:39.127Z,19.53
2022-07-25T05:04:06.274Z,19.57
2022-07-25T05:06:33.443Z,19.86
2022-07-25T05:09:00.640Z,19.92
2022-07-25T05:11:27.577Z,19.96
2022-07-25T05:13:54.540Z,20.18
2022-07-25T05:16:21.495Z,20.20
2022-07-25T05:18:48.638Z,20.24
2022-07-25T05:21:15.542Z,20.29
2022-07-25T05:23:42.447Z,20.38
2022-07-25T05:26:09.294Z,20.72
2022-07-25T05:28:36.255Z,20.74
2022-07-25T05:31:03.470Z,21.05
2022-07-25T05:33:30.428Z,21.11
2022-07-25T05:35:57.326Z,21.11
2022-07-25T05:38:24.198Z,21.39
2022-07-25T05:40:52.494Z,21.41
2022-07-25T05:43:19.858Z,21.63
2022-07-25T05:45:49.848Z,21.80
2022-07-25T05:48:17.085Z,21.69
2022-07-25T05:50:43.991Z,22.00
2022-07-25T05:53:10.845Z,22.08
2022-07-25T05:55:40.210Z,22.14
2022-07-25T05:58:09.585Z,22.39
2022-07-25T06:00:37.455Z,22.46
2022-07-25T06:03:04.609Z,22.64
2022-07-25T06:05:31.832Z,22.76
2022-07-25T06:07:58.758Z,22.86
2022-07-25T06:10:25.637Z,22.92
2022-07-25T06:12:53.843Z,23.25
2022-07-25T06:15:22.527Z,23.13
2022-07-25T06:17:51.904Z,23.22
2022-07-25T06:20:18.924Z,23.67
2022-07-25T06:22:45.921Z,23.84
2022-07-25T06:25:13.136Z,23.82
2022-07-25T06:27:40.030Z,24.03
2022-07-25T06:30:19.112Z,23.96
2022-07-25T06:32:51.009Z,24.19
2022-07-25T06:35:18.572Z,24.48
2022-07-25T06:37:46.116Z,24.42
2022-07-25T06:40:13.357Z,24.47
2022-07-25T06:42:42.061Z,24.57
2022-07-25T06:45:10.990Z,24.42
2022-07-25T06:47:39.105Z,24.59
2022-07-25T06:50:07.384Z,24.76
2022-07-25T06:52:34.947Z,24.69
2022-07-25T06:55:03.398Z,25.17
2022-07-25T06:57:30.255Z,25.18
2022-07-25T06:59:57.603Z,25.53
2022-07-25T07:02:24.487Z,25.10
2022-07-25T07:04:51.359Z,25.35
2022-07-25T07:07:18.711Z,25.41
2022-07-25T07:09:45.578Z,25.69
2022-07-25T07:12:12.463Z,25.63
2022-07-25T07:14:39.612Z,25.96
2022-07-25T07:17:08.533Z,25.91
2022-07-25T07:19:35.790Z,25.99
2022-07-25T07:22:02.649Z,26.06
2022-07-25T07:24:29.547Z,26.09
2022-07-25T07:26:56.868Z,26.29
2022-07-25T07:29:23.961Z,26.40
2022-07-25T07:31:51.342Z,26.50
2022-07-25T07:34:19.412Z,26.84
2022-07-25T07:36:46.401Z,26.95
2022-07-25T07:39:13.377Z,26.98
2022-07-25T07:41:40.258Z,27.03
2022-07-25T07:44:07.251Z,26.84
2022-07-25T07:46:34.220Z,27.08
2022-07-25T07:49:01.310Z,27.29
2022-07-25T07:51:28.296Z,27.30
2022-07-25T07:54:13.778Z,27.48
2022-07-25T07:56:42.346Z,27.58
2022-07-25T07:59:09.630Z,27.67
2022-07-25T08:01:36.921Z,27.98
2022-07-25T08:04:04.165Z,28.02
2022-07-25T08:06:31.083Z,28.03
2022-07-25T08:08:57.918Z,28.18
2022-07-25T08:11:25.909Z,28.30
2022-07-25T08:13:52.881Z,28.28
2022-07-25T08:16:19.810Z,28.48
2022-07-25T08:18:46.988Z,28.00
2022-07-25T08:21:13.955Z,28.15
2022-07-25T08:23:40.984Z,28.42
2022-07-25T08:26:07.999Z,28.54
2022-07-25T08:28:34.907Z,28.29
2022-07-25T08:31:02.117Z,28.41
2022-07-25T08:33:29.029Z,28.62
2022-07-25T08:35:58.937Z,29.00
2022-07-25T08:38:27.085Z,29.16
2022-07-25T08:40:55.618Z,29.27
2022-07-25T08:43:23.070Z,29.38
2022-07-25T08:45:54.336Z,29.02
2022-07-25T08:48:23.920Z,29.35
2022-07-25T08:50:52.033Z,28.50
2022-07-25T08:53:36.117Z,28.88
2022-07-25T08:56:13.312Z,29.12
2022-07-25T08:58:43.907Z,28.99
2022-07-25T09:01:14.000Z,29.39
2022-07-25T09:03:43.358Z,29.43
2022-07-25T09:06:21.139Z,29.58
2022-07-25T09:08:56.174Z,29.88
2022-07-25T09:11:35.032Z,29.83
2022-07-25T09:14:15.014Z,29.78
2022-07-25T09:16:44.723Z,29.66
2022-07-25T09:19:20.559Z,29.92
2022-07-25T09:22:10.053Z,30.15
2022-07-25T09:24:37.441Z,30.43
2022-07-25T09:27:12.631Z,30.56
2022-07-25T09:29:40.925Z,30.77
2022-07-25T09:32:22.939Z,30.86
2022-07-25T09:34:50.844Z,30.71
2022-07-25T09:37:20.183Z,29.87
2022-07-25T09:39:52.094Z,29.98
2022-07-25T09:42:23.994Z,30.49
2022-07-25T09:45:12.923Z,30.39
2022-07-25T09:47:51.317Z,30.44
2022-07-25T09:50:18.577Z,30.71
2022-07-25T09:52:46.554Z,30.52
2022-07-25T09:55:16.649Z,30.78
2022-07-25T09:57:45.324Z,30.55
2022-07-25T10:00:19.234Z,30.50
2022-07-25T10:03:11.297Z,30.50
2022-07-25T10:06:10.479Z,30.62
2022-07-25T10:08:39.831Z,30.59
2022-07-25T10:11:19.086Z,30.62
2022-07-25T10:13:45.992Z,31.01
2022-07-25T10:16:21.766Z,31.05
2022-07-25T10:18:59.055Z,31.02
2022-07-25T10:21:29.249Z,31.03
2022-07-25T10:24:07.363Z,30.45
2022-07-25T10:26:40.230Z,30.83
2022-07-25T10:29:13.287Z,30.96
2022-07-25T10:31:50.982Z,30.90
2022-07-25T10:34:30.854Z,31.01
2022-07-25T10:37:13.136Z,30.90
2022-07-25T10:39:45.152Z,31.01
2022-07-25T10:42:16.912Z,31.12
2022-07-25T10:44:49.704Z,30.51
2022-07-25T10:47:17.949Z,31.25
2022-07-25T10:50:13.821Z,31.25
2022-07-25T10:52:41.472Z,31.31
2022-07-25T10:55:08.857Z,31.36
2022-07-25T10:57:45.140Z,31.17
2022-07-25T11:00:22.146Z,31.07
2022-07-25T11:02:50.641Z,31.03
2022-07-25T11:05:17.599Z,31.14
2022-07-25T11:08:19.154Z,31.26
2022-07-25T11:10:39.671Z,31.55
2022-07-25T11:13:10.822Z,31.80
2022-07-25T11:15:37.957Z,31.47
2022-07-25T11:18:04.996Z,31.69
2022-07-25T11:20:31.893Z,31.71
2022-07-25T11:22:58.786Z,32.23
2022-07-25T11:25:25.620Z,32.62
2022-07-25T11:28:00.978Z,32.65
2022-07-25T11:30:29.852Z,32.72
2022-07-25T11:32:59.653Z,33.00
2022-07-25T11:35:29.379Z,32.81
2022-07-25T11:37:58.819Z,32.96
2022-07-25T11:40:26.039Z,32.83
2022-07-25T11:42:59.861Z,33.12
2022-07-25T11:45:26.827Z,32.70
2022-07-25T11:48:13.826Z,32.74
2022-07-25T11:50:44.089Z,33.09
2022-07-25T11:53:14.841Z,33.34
2022-07-25T11:55:43.451Z,33.60
2022-07-25T11:58:13.014Z,33.70
2022-07-25T12:00:43.048Z,33.64
2022-07-25T12:03:19.461Z,33.37
2022-07-25T12:05:48.315Z,33.42
2022-07-25T12:08:16.409Z,33.24
2022-07-25T12:10:45.077Z,33.07
2022-07-25T12:13:25.895Z,32.96
2022-07-25T12:15:52.858Z,32.93
2022-07-25T12:18:19.948Z,33.35
2022-07-25T12:20:46.876Z,33.41
2022-07-25T12:23:14.329Z,33.34
2022-07-25T12:25:46.455Z,33.45
2022-07-25T12:28:14.203Z,33.45
2022-07-25T12:30:43.291Z,33.32
2022-07-25T12:33:11.948Z,33.37
2022-07-25T12:35:41.200Z,33.08
2022-07-25T12:38:09.030Z,33.22
2022-07-25T12:40:35.903Z,33.70
2022-07-25T12:43:03.767Z,33.73
2022-07-25T12:45:30.696Z,33.66
2022-07-25T12:47:58.258Z,33.54
2022-07-25T12:50:26.591Z,33.64
2022-07-25T12:52:54.561Z,33.71
2022-07-25T12:55:22.792Z,33.80
2022-07-25T12:57:50.809Z,33.75
2022-07-25T13:00:22.291Z,34.00
2022-07-25T13:02:52.574Z,33.87
2022-07-25T13:05:19.996Z,33.95
2022-07-25T13:07:49.035Z,33.76
2022-07-25T13:10:19.110Z,33.96
2022-07-25T13:12:46.144Z,34.27
2022-07-25T13:15:13.217Z,34.10
2022-07-25T13:17:40.622Z,34.02
2022-07-25T13:20:08.465Z,34.07
2022-07-25T13:22:35.465Z,33.76
2022-07-25T13:25:02.349Z,33.80
2022-07-25T13:27:29.953Z,34.08
2022-07-25T13:29:58.116Z,33.93
2022-07-25T13:32:26.790Z,33.82
2022-07-25T13:34:55.757Z,33.60
2022-07-25T13:37:22.519Z,34.09
2022-07-25T13:39:49.525Z,33.83
2022-07-25T13:42:16.648Z,34.08
2022-07-25T13:44:43.615Z,34.33
2022-07-25T13:47:10.553Z,34.28
2022-07-25T13:49:37.665Z,34.08
2022-07-25T13:52:04.803Z,34.29
2022-07-25T13:54:31.948Z,34.11
2022-07-25T13:56:59.055Z,33.90
2022-07-25T13:59:25.988Z,34.22
2022-07-25T14:01:53.055Z,34.11
2022-07-25T14:04:20.086Z,33.76
2022-07-25T14:06:51.972Z,34.28
2022-07-25T14:09:20.707Z,34.30
2022-07-25T14:11:48.518Z,33.48
2022-07-25T14:14:15.837Z,33.96
2022-07-25T14:16:42.835Z,34.15
2022-07-25T14:19:10.823Z,34.33
2022-07-25T14:21:38.132Z,33.92
2022-07-25T14:24:05.585Z,34.10
2022-07-25T14:26:36.632Z,33.75
2022-07-25T14:29:04.292Z,34.15
2022-07-25T14:31:33.094Z,34.19
2022-07-25T14:34:00.002Z,34.02
2022-07-25T14:36:26.995Z,34.30
2022-07-25T14:38:53.944Z,34.24
2022-07-25T14:41:20.840Z,34.44
2022-07-25T14:43:48.452Z,34.18
2022-07-25T14:46:15.970Z,34.21
2022-07-25T14:48:43.026Z,33.87
2022-07-25T14:51:09.964Z,33.99
2022-07-25T14:53:37.193Z,34.42
2022-07-25T14:56:05.892Z,34.54
2022-07-25T14:58:33.714Z,34.49
2022-07-25T15:01:00.912Z,34.26
2022-07-25T15:03:27.903Z,34.25
2022-07-25T15:05:54.866Z,34.06
2022-07-25T15:08:24.581Z,33.74
2022-07-25T15:10:51.596Z,33.84
2022-07-25T15:13:31.041Z,33.79
2022-07-25T15:15:59.032Z,33.83
2022-07-25T15:18:26.084Z,33.75
2022-07-25T15:20:53.024Z,33.76
2022-07-25T15:23:21.266Z,33.71
2022-07-25T15:26:05.528Z,35.15
2022-07-25T15:28:37.447Z,35.54
2022-07-25T15:31:05.958Z,36.57
2022-07-25T15:33:33.650Z,36.52
2022-07-25T15:36:00.993Z,37.04
2022-07-25T15:38:29.180Z,37.36
2022-07-25T15:40:56.397Z,36.34
2022-07-25T15:43:23.531Z,35.80
2022-07-25T15:45:50.525Z,34.74
2022-07-25T15:48:19.339Z,34.46
2022-07-25T15:50:48.682Z,34.23
2022-07-25T15:53:16.337Z,33.90
2022-07-25T15:55:43.741Z,33.20
2022-07-25T15:58:11.351Z,33.05
2022-07-25T16:00:39.849Z,32.90
2022-07-25T16:03:07.078Z,33.20
2022-07-25T16:05:34.582Z,33.32
2022-07-25T16:08:02.196Z,33.15
2022-07-25T16:10:31.744Z,33.02
2022-07-25T16:12:58.943Z,32.85
2022-07-25T16:15:26.441Z,32.75
2022-07-25T16:17:53.845Z,32.76
2022-07-25T16:20:20.761Z,32.34
2022-07-25T16:22:49.195Z,32.56
2022-07-25T16:25:16.511Z,32.25
2022-07-25T16:27:43.399Z,32.22
2022-07-25T16:30:12.308Z,32.25
2022-07-25T16:32:39.212Z,32.21
2022-07-25T16:35:06.473Z,32.02
2022-07-25T16:37:33.358Z,32.20
2022-07-25T16:40:00.409Z,32.18
2022-07-25T16:42:27.271Z,31.97
2022-07-25T16:44:54.166Z,31.88
2022-07-25T16:47:21.729Z,31.79
2022-07-25T16:49:48.565Z,31.66
2022-07-25T16:52:15.821Z,31.80
2022-07-25T16:54:42.699Z,32.04
2022-07-25T16:57:09.604Z,32.04
2022-07-25T16:59:36.578Z,31.76
2022-07-25T17:02:04.179Z,31.50
2022-07-25T17:04:31.321Z,31.54
2022-07-25T17:06:58.281Z,31.46
2022-07-25T17:09:25.390Z,31.38
2022-07-25T17:11:52.377Z,31.19
2022-07-25T17:14:19.305Z,31.12
2022-07-25T17:16:46.469Z,31.07
2022-07-25T17:19:13.454Z,31.10
2022-07-25T17:21:40.306Z,31.02
2022-07-25T17:24:07.678Z,30.94
2022-07-25T17:26:35.664Z,30.76
2022-07-25T17:29:02.557Z,30.60
2022-07-25T17:31:29.655Z,30.86
2022-07-25T17:33:56.590Z,31.09
2022-07-25T17:36:23.606Z,30.84
2022-07-25T17:38:50.570Z,30.73
2022-07-25T17:41:17.400Z,30.56
2022-07-25T17:43:44.366Z,30.35
2022-07-25T17:46:13.649Z,30.11
2022-07-25T17:48:41.758Z,29.85
2022-07-25T17:51:08.756Z,29.46
2022-07-25T17:53:35.869Z,29.22
2022-07-25T17:56:03.475Z,29.09
2022-07-25T17:58:31.931Z,28.84
2022-07-25T18:01:01.316Z,28.62
2022-07-25T18:03:28.723Z,28.20
2022-07-25T18:05:55.846Z,27.95
2022-07-25T18:08:22.803Z,27.73
2022-07-25T18:10:52.502Z,27.50
2022-07-25T18:13:19.424Z,27.21
2022-07-25T18:15:47.342Z,27.14
2022-07-25T18:18:19.878Z,26.98
2022-07-25T18:20:47.451Z,26.93
2022-07-25T18:23:14.610Z,26.61
2022-07-25T18:25:41.590Z,26.61
2022-07-25T18:28:08.925Z,26.32
2022-07-25T18:30:36.874Z,26.13
2022-07-25T18:33:03.832Z,26.07
2022-07-25T18:35:30.693Z,25.84
2022-07-25T18:37:57.554Z,25.57
2022-07-25T18:40:24.466Z,25.51
2022-07-25T18:42:51.372Z,25.36
2022-07-25T18:45:19.324Z,24.62
2022-07-25T18:47:47.613Z,25.01
2022-07-25T18:50:14.516Z,24.81
2022-07-25T18:52:41.810Z,24.62
2022-07-25T18:55:10.242Z,24.73
2022-07-25T18:57:37.987Z,24.61
2022-07-25T19:00:09.203Z,24.37
2022-07-25T19:02:36.210Z,24.26
2022-07-25T19:05:03.596Z,24.07
2022-07-25T19:07:31.820Z,24.08
2022-07-25T19:09:58.681Z,24.00
2022-07-25T19:12:27.469Z,23.85
2022-07-25T19:14:54.859Z,23.72
2022-07-25T19:17:22.110Z,23.65
2022-07-25T19:19:49.352Z,23.51
2022-07-25T19:22:16.619Z,23.31
2022-07-25T19:24:43.968Z,23.20
2022-07-25T19:27:11.727Z,23.08
2022-07-25T19:29:38.885Z,22.98
2022-07-25T19:32:07.479Z,22.74
2022-07-25T19:34:34.359Z,22.74
2022-07-25T19:37:01.372Z,22.44
2022-07-25T19:39:28.343Z,22.54
2022-07-25T19:41:55.304Z,22.69
2022-07-25T19:44:22.215Z,22.20
2022-07-25T19:46:49.704Z,22.29
2022-07-25T19:49:17.304Z,22.23
2022-07-25T19:51:44.334Z,22.29
2022-07-25T19:54:11.595Z,22.56
2022-07-25T19:56:41.517Z,22.92
2022-07-25T19:59:08.466Z,22.87
2022-07-25T20:01:36.188Z,22.77
2022-07-25T20:04:05.630Z,22.65
2022-07-25T20:06:32.870Z,22.45
2022-07-25T20:08:59.745Z,22.50
2022-07-25T20:11:26.675Z,22.32
2022-07-25T20:13:54.479Z,22.34
2022-07-25T20:16:21.548Z,22.44
2022-07-25T20:18:48.770Z,22.15
2022-07-25T20:21:18.088Z,22.25
2022-07-25T20:23:45.881Z,21.98
2022-07-25T20:26:14.015Z,21.78
2022-07-25T20:28:41.250Z,21.61
2022-07-25T20:31:08.270Z,21.56
2022-07-25T20:33:36.020Z,21.51
2022-07-25T20:36:03.707Z,21.36
2022-07-25T20:38:32.416Z,21.09
2022-07-25T20:41:00.668Z,21.39
2022-07-25T20:43:28.760Z,21.36
2022-07-25T20:45:55.889Z,21.49
2022-07-25T20:48:23.135Z,21.52
2022-07-25T20:50:50.367Z,21.57
2022-07-25T20:53:17.350Z,21.38
2022-07-25T20:55:44.186Z,21.32
2022-07-25T20:58:11.288Z,21.40
2022-07-25T21:00:38.224Z,21.51
2022-07-25T21:03:08.255Z,21.69
2022-07-25T21:05:37.883Z,21.70
2022-07-25T21:08:06.165Z,21.82
2022-07-25T21:10:33.302Z,22.05
2022-07-25T21:13:00.262Z,21.99
2022-07-25T21:15:27.100Z,21.80
2022-07-25T21:17:54.011Z,21.77
2022-07-25T21:20:20.934Z,21.66
2022-07-25T21:22:48.039Z,21.35
2022-07-25T21:25:15.142Z,21.31
2022-07-25T21:27:42.411Z,21.47
2022-07-25T21:30:10.717Z,21.59
2022-07-25T21:32:39.349Z,21.60
2022-07-25T21:35:06.811Z,21.47
2022-07-25T21:37:34.101Z,21.38
2022-07-25T21:40:01.132Z,21.25
2022-07-25T21:42:28.177Z,21.26
2022-07-25T21:44:55.058Z,21.14
2022-07-25T21:47:21.984Z,21.27
2022-07-25T21:50:07.792Z,21.24
2022-07-25T21:52:35.322Z,21.12
2022-07-25T21:55:04.681Z,20.96
2022-07-25T21:57:31.892Z,20.65
2022-07-25T21:59:58.953Z,20.53
2022-07-25T22:02:26.281Z,20.42
2022-07-25T22:04:53.368Z,20.32
2022-07-25T22:07:20.343Z,20.41
2022-07-25T22:09:47.207Z,20.45
2022-07-25T22:12:15.128Z,20.37
2022-07-25T22:14:42.303Z,20.15
2022-07-25T22:17:09.457Z,20.02
2022-07-25T22:19:36.649Z,20.01
2022-07-25T22:22:05.690Z,19.37
2022-07-25T22:24:32.652Z,19.78
2022-07-25T22:26:59.604Z,19.70
2022-07-25T22:29:26.506Z,19.63
2022-07-25T22:31:53.453Z,19.29
2022-07-25T22:34:20.534Z,19.60
2022-07-25T22:36:48.179Z,19.50
2022-07-25T22:39:16.500Z,19.48
2022-07-25T22:41:44.110Z,19.49
2022-07-25T22:44:11.045Z,19.38
2022-07-25T22:46:38.021Z,19.18
2022-07-25T22:49:05.784Z,19.29
2022-07-25T22:51:33.073Z,19.33
2022-07-25T22:54:00.583Z,19.44
2022-07-25T22:56:28.152Z,19.33
2022-07-25T22:58:55.634Z,18.92
2022-07-25T23:01:23.138Z,18.95
2022-07-25T23:03:50.775Z,18.94
2022-07-25T23:06:21.614Z,18.80
2022-07-25T23:08:49.118Z,18.78
2022-07-25T23:11:16.491Z,18.54
2022-07-25T23:13:43.452Z,18.41
2022-07-25T23:16:10.686Z,18.45
2022-07-25T23:18:38.656Z,18.15
2022-07-25T23:21:06.311Z,17.95
2022-07-25T23:23:33.371Z,18.30
2022-07-25T23:26:00.308Z,18.44
2022-07-25T23:28:27.210Z,18.57
2022-07-25T23:30:54.317Z,18.82
2022-07-25T23:33:25.546Z,18.61
2022-07-25T23:35:53.582Z,18.23
2022-07-25T23:38:20.813Z,17.69
2022-07-25T23:40:49.125Z,17.96
2022-07-25T23:43:24.719Z,17.93
2022-07-25T23:46:02.946Z,18.29
2022-07-25T23:48:29.964Z,18.37
2022-07-25T23:50:56.980Z,18.44
2022-07-25T23:53:23.880Z,18.43
2022-07-25T23:55:50.821Z,19.16
2022-07-25T23:58:17.793Z,19.20
